Time;durP1;ratioP1;P1;durP2;ratioP2;P2;SDS_P1;SDS_P2;PMS_P1;PMS_P2;Temp;Humidity;BMP_temperature;BMP_pressure;BME280_temperature;BME280_humidity;BME280_pressure;Samples;Min_cycle;Max_cycle;Signal;HPM_P1;HPM_P2
2023/07/13 00:00:15;;;;;;;9.38;2.95;;;13.50;99.90;;;;;;4938199;29;20039;-93
2023/07/13 00:02:41;;;;;;;9.80;2.25;;;13.50;99.90;;;;;;4938623;29;20028;-95
2023/07/13 00:05:07;;;;;;;5.07;2.80;;;13.50;99.90;;;;;;4943715;29;20123;-94
2023/07/13 00:07:32;;;;;;;12.73;2.72;;;13.50;99.90;;;;;;4944743;29;20363;-92
2023/07/13 00:09:59;;;;;;;12.38;2.67;;;13.50;99.90;;;;;;4945498;29;20032;-93
2023/07/13 00:12:34;;;;;;;9.57;3.78;;;13.50;99.90;;;;;;4952824;28;20004;-92
2023/07/13 00:15:04;;;;;;;6.82;2.78;;;13.50;99.90;;;;;;4953946;28;20040;-93
2023/07/13 00:17:30;;;;;;;5.72;2.30;;;13.50;99.90;;;;;;4956146;28;20043;-94
2023/07/13 00:19:56;;;;;;;9.73;2.58;;;13.40;99.90;;;;;;4955777;29;20059;-92
2023/07/13 00:22:23;;;;;;;9.50;3.17;;;13.40;99.90;;;;;;4959691;28;20016;-93
2023/07/13 00:24:51;;;;;;;9.63;2.42;;;13.40;99.90;;;;;;4961680;28;20039;-92
2023/07/13 00:27:18;;;;;;;7.40;2.45;;;13.40;99.90;;;;;;4954017;29;20031;-93
2023/07/13 00:29:44;;;;;;;9.32;2.53;;;13.40;99.90;;;;;;4951154;29;20028;-96
2023/07/13 00:32:11;;;;;;;16.83;2.95;;;13.40;99.90;;;;;;4951046;28;20028;-96
2023/07/13 00:34:37;;;;;;;9.85;2.72;;;13.40;99.90;;;;;;4958267;29;20031;-95
2023/07/13 00:37:03;;;;;;;10.52;2.90;;;13.40;99.90;;;;;;4958273;28;20023;-89
2023/07/13 00:39:28;;;;;;;7.53;2.70;;;13.40;99.90;;;;;;4961826;28;20054;-91
2023/07/13 00:41:54;;;;;;;8.93;3.08;;;13.50;99.90;;;;;;4961792;28;20019;-93
2023/07/13 00:44:23;;;;;;;9.80;2.85;;;13.40;99.90;;;;;;4942512;29;20039;-93
2023/07/13 00:46:49;;;;;;;24.95;3.50;;;13.50;99.90;;;;;;4950336;29;20052;-95
2023/07/13 00:49:19;;;;;;;13.90;3.17;;;13.50;99.90;;;;;;4950906;29;20054;-96
2023/07/13 00:51:53;;;;;;;13.90;3.60;;;13.50;99.90;;;;;;4940691;29;20030;-95
2023/07/13 00:54:23;;;;;;;13.55;4.05;;;13.50;99.90;;;;;;4950418;29;20287;-94
2023/07/13 00:56:52;;;;;;;12.93;3.38;;;13.50;99.90;;;;;;4960335;29;20023;-91
2023/07/13 00:59:19;;;;;;;11.55;3.10;;;13.50;99.90;;;;;;4961766;29;20088;-88
2023/07/13 01:01:46;;;;;;;15.20;3.25;;;13.50;99.90;;;;;;4962126;28;20043;-87
2023/07/13 01:04:12;;;;;;;8.35;2.80;;;13.50;99.90;;;;;;4961681;28;20091;-92
2023/07/13 01:06:39;;;;;;;10.50;2.65;;;13.50;99.90;;;;;;4960646;29;20079;-91
2023/07/13 01:09:07;;;;;;;9.95;3.53;;;13.50;99.90;;;;;;4961380;28;20028;-89
2023/07/13 01:11:34;;;;;;;7.78;1.80;;;13.40;99.90;;;;;;4955612;28;20020;-87
2023/07/13 01:14:01;;;;;;;6.45;2.83;;;13.40;99.90;;;;;;4961320;28;20062;-91
2023/07/13 01:16:37;;;;;;;6.22;2.35;;;13.30;99.90;;;;;;4962334;28;20008;-92
2023/07/13 01:19:35;;;;;;;5.20;2.13;;;13.30;99.90;;;;;;4960553;28;20063;-92
2023/07/13 01:22:02;;;;;;;6.00;2.33;;;13.20;99.90;;;;;;4954135;28;20016;-90
2023/07/13 01:24:28;;;;;;;5.65;2.65;;;13.20;99.90;;;;;;4958905;29;20023;-93
2023/07/13 01:26:54;;;;;;;10.73;3.55;;;13.20;99.90;;;;;;4953940;29;20028;-95
2023/07/13 01:29:21;;;;;;;7.35;3.13;;;13.20;99.90;;;;;;4957100;29;20059;-94
2023/07/13 01:31:47;;;;;;;7.80;3.38;;;13.10;99.90;;;;;;4958451;29;20263;-91
2023/07/13 01:34:13;;;;;;;10.50;3.35;;;13.10;99.90;;;;;;4957136;29;20040;-94
2023/07/13 01:36:38;;;;;;;12.18;3.20;;;13.10;99.90;;;;;;4955398;29;20164;-93
2023/07/13 01:39:04;;;;;;;10.32;3.97;;;13.10;99.90;;;;;;4952779;29;20046;-94
2023/07/13 01:41:30;;;;;;;13.80;4.07;;;13.10;99.90;;;;;;4950840;29;20023;-93
2023/07/13 01:43:56;;;;;;;9.60;3.78;;;13.10;99.90;;;;;;4951610;29;20054;-94
2023/07/13 01:46:21;;;;;;;14.88;4.63;;;13.00;99.90;;;;;;4944852;29;20078;-94
2023/07/13 01:48:47;;;;;;;8.70;4.32;;;13.00;99.90;;;;;;4950638;29;20058;-95
2023/07/13 01:51:13;;;;;;;10.73;4.55;;;13.00;99.90;;;;;;4957918;29;20043;-94
2023/07/13 01:53:39;;;;;;;10.38;4.30;;;13.00;99.90;;;;;;4958140;29;20051;-95
2023/07/13 01:56:05;;;;;;;12.77;4.10;;;13.00;99.90;;;;;;4953451;29;20038;-95
2023/07/13 01:58:30;;;;;;;9.48;4.53;;;13.00;99.90;;;;;;4951390;29;20036;-95
2023/07/13 02:00:56;;;;;;;10.30;3.95;;;12.90;99.90;;;;;;4946900;29;20073;-95
2023/07/13 02:03:22;;;;;;;11.65;4.18;;;12.90;99.90;;;;;;4945273;29;20114;-95
2023/07/13 02:05:47;;;;;;;14.15;5.13;;;12.90;99.90;;;;;;4941535;29;20039;-95
2023/07/13 02:08:13;;;;;;;16.98;5.10;;;12.90;99.90;;;;;;4938588;29;20032;-94
2023/07/13 02:10:39;;;;;;;16.45;4.57;;;12.90;99.90;;;;;;4940140;29;20028;-95
2023/07/13 02:13:06;;;;;;;12.52;4.68;;;12.90;99.90;;;;;;4948114;28;20016;-90
2023/07/13 02:15:32;;;;;;;12.75;5.28;;;12.90;99.90;;;;;;4961021;28;20038;-92
2023/07/13 02:17:58;;;;;;;12.18;4.20;;;12.90;99.90;;;;;;4957406;28;20036;-92
2023/07/13 02:20:24;;;;;;;11.68;4.78;;;12.80;99.90;;;;;;4926714;29;20597;-95
2023/07/13 02:22:50;;;;;;;17.27;4.75;;;12.80;99.90;;;;;;4919953;29;20031;-94
2023/07/13 02:25:16;;;;;;;12.02;4.82;;;12.80;99.90;;;;;;4919145;29;20114;-95
2023/07/13 02:27:41;;;;;;;9.10;4.90;;;12.80;99.90;;;;;;4919706;29;20067;-95
2023/07/13 02:30:08;;;;;;;17.75;5.78;;;12.80;99.90;;;;;;4921551;29;20122;-94
2023/07/13 02:32:35;;;;;;;9.15;4.35;;;12.80;99.90;;;;;;4919563;29;20028;-95
2023/07/13 02:35:01;;;;;;;12.38;5.10;;;12.80;99.90;;;;;;4916978;29;20502;-95
2023/07/13 02:37:26;;;;;;;12.77;4.43;;;12.80;99.90;;;;;;4917179;29;20052;-95
2023/07/13 02:39:52;;;;;;;8.45;4.57;;;12.80;99.90;;;;;;4918732;29;20028;-95
2023/07/13 02:42:18;;;;;;;12.35;4.60;;;12.80;99.90;;;;;;4918287;29;20413;-95
2023/07/13 02:44:43;;;;;;;14.40;5.00;;;12.80;99.90;;;;;;4925239;29;20047;-95
2023/07/13 02:47:09;;;;;;;9.98;4.07;;;12.80;99.90;;;;;;4929536;29;20028;-95
2023/07/13 02:49:35;;;;;;;9.35;4.55;;;12.80;99.90;;;;;;4917449;29;20514;-96
2023/07/13 02:52:02;;;;;;;12.15;4.18;;;12.80;99.90;;;;;;4919204;29;20108;-94
2023/07/13 02:54:27;;;;;;;10.85;4.50;;;12.70;99.90;;;;;;4918537;29;20056;-94
2023/07/13 02:56:53;;;;;;;13.63;5.32;;;12.70;99.90;;;;;;4917697;29;20031;-95
2023/07/13 02:59:19;;;;;;;8.77;4.65;;;12.70;99.90;;;;;;4916674;29;20032;-94
2023/07/13 03:01:44;;;;;;;13.38;5.55;;;12.70;99.90;;;;;;4916617;29;20028;-95
2023/07/13 03:04:10;;;;;;;12.13;4.47;;;12.70;99.90;;;;;;4917552;29;20040;-95
2023/07/13 03:06:36;;;;;;;15.02;5.05;;;12.70;99.90;;;;;;4915594;29;20027;-93
2023/07/13 03:09:01;;;;;;;9.20;4.78;;;12.70;99.90;;;;;;4917521;29;20032;-93
2023/07/13 03:11:27;;;;;;;13.50;4.53;;;12.70;99.90;;;;;;4921011;29;20020;-96
2023/07/13 03:13:53;;;;;;;6.20;3.75;;;12.60;99.90;;;;;;4936557;29;20118;-94
2023/07/13 03:16:19;;;;;;;9.88;3.25;;;12.60;99.90;;;;;;4935856;29;20047;-95
2023/07/13 03:18:46;;;;;;;13.20;3.75;;;12.60;99.90;;;;;;4936393;29;20028;-94
2023/07/13 03:21:12;;;;;;;13.10;4.88;;;12.60;99.90;;;;;;4937251;29;20027;-94
2023/07/13 03:23:37;;;;;;;10.38;4.63;;;12.60;99.90;;;;;;4935006;29;20042;-96
2023/07/13 03:26:08;;;;;;;8.45;4.20;;;12.60;99.90;;;;;;4936022;29;20062;-92
2023/07/13 03:28:34;;;;;;;9.45;3.97;;;12.60;99.90;;;;;;4935643;29;20024;-95
2023/07/13 03:31:18;;;;;;;8.75;4.15;;;12.60;99.90;;;;;;4935857;29;20063;-94
2023/07/13 03:33:44;;;;;;;14.23;5.22;;;12.60;99.90;;;;;;4934887;29;20023;-95
2023/07/13 03:36:16;;;;;;;14.90;4.90;;;12.60;99.90;;;;;;4935306;29;20055;-94
2023/07/13 03:38:41;;;;;;;10.10;4.80;;;12.60;99.90;;;;;;4934703;29;20028;-94
2023/07/13 03:41:07;;;;;;;12.57;5.53;;;12.50;99.90;;;;;;4936149;29;20058;-94
2023/07/13 03:43:33;;;;;;;12.75;5.32;;;12.50;99.90;;;;;;4935331;29;20036;-96
2023/07/13 03:45:58;;;;;;;11.13;5.25;;;12.50;99.90;;;;;;4936113;29;20031;-96
2023/07/13 03:48:24;;;;;;;11.73;5.60;;;12.40;99.90;;;;;;4939719;29;20036;-94
2023/07/13 03:50:49;;;;;;;8.25;4.55;;;12.40;99.90;;;;;;4942264;29;20028;-93
2023/07/13 03:53:16;;;;;;;10.93;5.15;;;12.40;99.90;;;;;;4957391;29;20070;-93
2023/07/13 03:55:41;;;;;;;9.32;5.93;;;12.40;99.90;;;;;;4958710;29;20071;-94
2023/07/13 03:58:30;;;;;;;9.95;5.93;;;12.40;99.90;;;;;;4946671;29;20028;-92
2023/07/13 04:00:57;;;;;;;14.32;6.13;;;12.40;99.90;;;;;;4919657;29;20028;-94
2023/07/13 04:03:23;;;;;;;9.80;6.90;;;12.40;99.90;;;;;;4919076;29;20024;-95
2023/07/13 04:05:49;;;;;;;11.55;6.57;;;12.40;99.90;;;;;;4919796;29;20181;-95
2023/07/13 04:08:15;;;;;;;14.10;7.00;;;12.50;99.90;;;;;;4920149;29;20024;-93
2023/07/13 04:10:41;;;;;;;13.30;7.70;;;12.50;99.90;;;;;;4920241;29;20028;-95
2023/07/13 04:13:06;;;;;;;12.85;7.35;;;12.50;99.90;;;;;;4921277;29;20099;-95
2023/07/13 04:15:32;;;;;;;11.73;6.75;;;12.50;99.90;;;;;;4920770;29;20089;-95
2023/07/13 04:17:58;;;;;;;14.98;7.88;;;12.60;99.90;;;;;;4920069;29;20091;-95
2023/07/13 04:20:27;;;;;;;13.45;8.15;;;12.60;99.90;;;;;;4923463;29;20514;-95
2023/07/13 04:22:55;;;;;;;10.95;5.28;;;12.60;99.90;;;;;;4926791;29;20036;-95
2023/07/13 04:25:21;;;;;;;14.25;7.63;;;12.60;99.90;;;;;;4926541;29;20048;-95
2023/07/13 04:27:47;;;;;;;16.77;10.05;;;12.60;99.90;;;;;;4928632;29;20032;-94
2023/07/13 04:30:13;;;;;;;19.40;11.65;;;12.70;99.90;;;;;;4931115;29;20088;-95
2023/07/13 04:32:39;;;;;;;20.70;9.63;;;12.70;99.90;;;;;;4935715;29;20048;-95
2023/07/13 04:35:05;;;;;;;15.32;7.93;;;12.70;99.90;;;;;;4929286;29;20119;-95
2023/07/13 04:37:30;;;;;;;16.48;6.72;;;12.70;99.90;;;;;;4931770;29;20036;-94
2023/07/13 04:39:56;;;;;;;12.27;6.15;;;12.80;99.90;;;;;;4925429;29;20039;-95
2023/07/13 04:42:22;;;;;;;15.82;5.70;;;12.80;99.90;;;;;;4928038;29;20080;-94
2023/07/13 04:44:49;;;;;;;13.48;7.07;;;12.80;99.90;;;;;;4925530;29;20115;-94
2023/07/13 04:47:15;;;;;;;18.67;7.35;;;12.80;99.90;;;;;;4931660;29;20024;-96
2023/07/13 04:49:40;;;;;;;11.00;6.75;;;12.80;99.90;;;;;;4933270;29;20233;-95
2023/07/13 04:52:07;;;;;;;18.02;6.80;;;12.80;99.90;;;;;;4933471;29;20031;-94
2023/07/13 04:54:33;;;;;;;11.98;7.18;;;12.90;99.90;;;;;;4931141;29;20066;-95
2023/07/13 04:56:59;;;;;;;17.95;9.40;;;12.90;99.90;;;;;;4934982;29;20059;-93
2023/07/13 04:59:25;;;;;;;14.23;8.00;;;12.90;99.90;;;;;;4916026;29;20063;-92
2023/07/13 05:01:51;;;;;;;10.30;7.60;;;13.00;99.90;;;;;;4934425;29;20149;-93
2023/07/13 05:04:17;;;;;;;15.82;9.88;;;13.00;99.90;;;;;;4929437;29;20035;-95
2023/07/13 05:06:42;;;;;;;14.13;9.43;;;13.00;99.90;;;;;;4930368;29;20031;-96
2023/07/13 05:09:08;;;;;;;19.92;10.23;;;13.10;99.90;;;;;;4934312;29;20029;-95
2023/07/13 05:11:34;;;;;;;10.57;6.85;;;13.10;99.90;;;;;;4934336;29;20064;-94
2023/07/13 05:14:01;;;;;;;9.80;7.18;;;13.10;99.90;;;;;;4939168;29;20032;-94
2023/07/13 05:16:27;;;;;;;15.00;7.20;;;13.20;99.90;;;;;;4937697;29;20052;-94
2023/07/13 05:18:53;;;;;;;11.77;7.10;;;13.20;99.90;;;;;;4918309;29;20039;-93
2023/07/13 05:21:19;;;;;;;20.08;9.57;;;13.20;99.90;;;;;;4934964;29;20052;-93
2023/07/13 05:23:45;;;;;;;14.88;8.90;;;13.30;99.90;;;;;;4933513;29;20084;-95
2023/07/13 05:26:11;;;;;;;10.43;7.97;;;13.30;99.90;;;;;;4936508;29;20088;-94
2023/07/13 05:28:37;;;;;;;11.38;6.65;;;13.30;99.90;;;;;;4941624;29;20048;-87
2023/07/13 05:31:04;;;;;;;9.68;6.95;;;13.30;99.90;;;;;;4942611;29;20020;-87
2023/07/13 05:33:30;;;;;;;7.72;6.70;;;13.40;99.90;;;;;;4941614;29;20005;-89
2023/07/13 05:35:56;;;;;;;15.02;7.22;;;13.40;99.90;;;;;;4936439;29;20033;-94
2023/07/13 05:38:22;;;;;;;7.75;6.38;;;13.40;99.90;;;;;;4938272;29;20051;-94
2023/07/13 05:40:47;;;;;;;9.90;6.55;;;13.40;99.90;;;;;;4939641;29;20036;-91
2023/07/13 05:43:15;;;;;;;14.82;6.45;;;13.40;99.90;;;;;;4939982;29;20028;-91
2023/07/13 05:45:41;;;;;;;7.80;5.13;;;13.50;99.90;;;;;;4937916;29;20024;-92
2023/07/13 05:48:06;;;;;;;9.98;4.97;;;13.50;99.90;;;;;;4940432;29;20048;-91
2023/07/13 05:50:32;;;;;;;7.63;5.10;;;13.50;99.90;;;;;;4941304;29;20029;-93
2023/07/13 05:52:58;;;;;;;7.57;5.22;;;13.60;99.90;;;;;;4938050;29;20061;-95
2023/07/13 05:55:23;;;;;;;5.82;4.80;;;13.60;99.90;;;;;;4927081;29;20068;-94
2023/07/13 05:57:49;;;;;;;8.68;4.63;;;13.60;99.90;;;;;;4932659;29;20027;-93
2023/07/13 06:00:15;;;;;;;4.72;4.22;;;13.60;99.90;;;;;;4938187;29;20024;-96
2023/07/13 06:02:42;;;;;;;5.68;4.72;;;13.70;99.90;;;;;;4932194;29;20031;-96
2023/07/13 06:05:08;;;;;;;6.93;4.40;;;13.70;99.90;;;;;;4936785;29;20020;-94
2023/07/13 06:07:33;;;;;;;7.00;4.03;;;13.80;99.90;;;;;;4937383;29;20056;-94
2023/07/13 06:09:59;;;;;;;4.95;3.75;;;13.80;99.90;;;;;;4939984;29;20032;-90
2023/07/13 06:12:26;;;;;;;7.80;4.07;;;13.90;99.90;;;;;;4940222;29;20051;-90
2023/07/13 06:14:52;;;;;;;6.03;4.00;;;14.00;99.90;;;;;;4937574;29;20068;-92
2023/07/13 06:17:17;;;;;;;7.38;4.80;;;14.10;99.90;;;;;;4937761;29;20036;-94
2023/07/13 06:19:43;;;;;;;6.40;4.25;;;14.20;99.90;;;;;;4937651;29;20031;-90
2023/07/13 06:22:09;;;;;;;4.90;3.45;;;14.20;99.90;;;;;;4935371;29;20028;-96
2023/07/13 06:24:35;;;;;;;9.20;4.90;;;14.30;99.90;;;;;;4937568;29;20059;-95
2023/07/13 06:27:00;;;;;;;8.45;4.55;;;14.40;99.90;;;;;;4937953;29;20035;-94
2023/07/13 06:29:34;;;;;;;3.83;3.40;;;14.50;99.90;;;;;;4935104;29;20036;-94
2023/07/13 06:32:01;;;;;;;6.60;4.15;;;14.60;99.90;;;;;;4937429;29;20028;-92
2023/07/13 06:34:26;;;;;;;4.57;3.63;;;14.60;99.90;;;;;;4934194;29;20040;-94
2023/07/13 06:36:52;;;;;;;7.18;4.38;;;14.60;99.90;;;;;;4924370;29;20087;-94
2023/07/13 06:39:18;;;;;;;10.02;4.22;;;14.80;99.90;;;;;;4927433;29;20031;-94
2023/07/13 06:41:44;;;;;;;7.95;4.63;;;14.80;99.90;;;;;;4927635;29;20020;-96
2023/07/13 06:44:09;;;;;;;4.15;3.55;;;14.80;99.90;;;;;;4926685;29;20413;-92
2023/07/13 06:46:35;;;;;;;7.65;3.30;;;14.80;99.90;;;;;;4919534;29;20024;-96
2023/07/13 06:49:01;;;;;;;8.35;3.30;;;14.70;99.90;;;;;;4917858;29;20070;-94
2023/07/13 06:51:26;;;;;;;10.77;3.60;;;14.70;99.90;;;;;;4918434;29;20029;-94
2023/07/13 06:53:52;;;;;;;7.75;3.72;;;14.70;99.90;;;;;;4917725;29;20059;-92
2023/07/13 06:56:18;;;;;;;5.53;3.00;;;14.80;99.90;;;;;;4920163;29;20121;-96
2023/07/13 06:58:43;;;;;;;5.47;3.22;;;14.90;99.90;;;;;;4926508;29;20036;-94
2023/07/13 07:01:09;;;;;;;6.10;3.92;;;15.00;99.90;;;;;;4934245;29;20036;-90
2023/07/13 07:03:35;;;;;;;6.03;3.53;;;15.00;99.90;;;;;;4933982;29;20483;-94
2023/07/13 07:06:24;;;;;;;5.50;3.00;;;15.00;99.90;;;;;;4931507;29;20042;-92
2023/07/13 07:08:51;;;;;;;7.95;3.47;;;15.10;99.90;;;;;;4941131;29;20016;-88
2023/07/13 07:11:23;;;;;;;4.75;3.13;;;15.20;99.90;;;;;;4935221;29;20033;-92
2023/07/13 07:13:49;;;;;;;9.43;3.42;;;15.30;99.90;;;;;;4928223;29;20112;-95
2023/07/13 07:16:15;;;;;;;5.15;2.72;;;15.40;99.90;;;;;;4919006;29;20056;-95
2023/07/13 07:18:41;;;;;;;3.58;2.85;;;15.50;99.90;;;;;;4923321;29;20079;-96
2023/07/13 07:21:06;;;;;;;8.20;2.50;;;15.50;99.90;;;;;;4926765;29;20024;-95
2023/07/13 07:23:32;;;;;;;5.65;2.30;;;15.60;99.90;;;;;;4931285;29;20024;-93
2023/07/13 07:25:58;;;;;;;4.85;2.75;;;15.70;99.90;;;;;;4930786;29;20090;-94
2023/07/13 07:28:24;;;;;;;4.30;2.72;;;15.80;99.90;;;;;;4933491;29;20119;-94
2023/07/13 07:30:53;;;;;;;9.23;2.80;;;15.80;99.90;;;;;;4921241;29;20404;-96
2023/07/13 07:33:19;;;;;;;5.95;1.98;;;15.80;99.90;;;;;;4920050;29;20036;-96
2023/07/13 07:35:45;;;;;;;5.65;2.35;;;15.90;99.90;;;;;;4918516;29;20145;-95
2023/07/13 07:38:10;;;;;;;5.47;2.20;;;16.00;99.90;;;;;;4921753;29;21042;-93
2023/07/13 07:40:38;;;;;;;3.55;1.88;;;16.10;99.90;;;;;;4920644;29;20451;-96
2023/07/13 07:43:03;;;;;;;5.85;2.17;;;16.20;99.90;;;;;;4917110;29;20027;-93
2023/07/13 07:45:29;;;;;;;3.67;1.60;;;16.30;99.90;;;;;;4917546;29;20024;-93
2023/07/13 07:47:58;;;;;;;6.18;1.80;;;16.50;99.90;;;;;;4919049;29;20111;-92
2023/07/13 07:50:25;;;;;;;5.30;2.08;;;16.50;99.90;;;;;;4917016;29;20051;-93
2023/07/13 07:52:50;;;;;;;5.65;1.73;;;16.50;99.90;;;;;;4926611;29;20060;-95
2023/07/13 07:55:17;;;;;;;4.25;1.70;;;16.50;99.90;;;;;;4934394;29;20047;-91
2023/07/13 07:57:43;;;;;;;5.40;2.00;;;16.60;99.90;;;;;;4933332;29;20348;-94
2023/07/13 08:00:09;;;;;;;6.55;2.15;;;16.70;99.90;;;;;;4932202;29;20541;-95
2023/07/13 08:02:35;;;;;;;5.72;1.88;;;16.70;99.90;;;;;;4930054;29;20028;-95
2023/07/13 08:05:00;;;;;;;4.70;1.90;;;16.80;99.90;;;;;;4926307;29;20083;-96
2023/07/13 08:07:26;;;;;;;2.78;1.65;;;16.70;99.90;;;;;;4924116;29;20036;-95
2023/07/13 08:09:53;;;;;;;3.25;1.83;;;16.70;99.90;;;;;;4921379;29;20032;-96
2023/07/13 08:12:19;;;;;;;4.13;1.90;;;16.70;99.90;;;;;;4918737;29;20582;-94
2023/07/13 08:14:49;;;;;;;2.45;1.70;;;16.70;99.90;;;;;;4917892;29;20043;-95
2023/07/13 08:17:15;;;;;;;1.90;1.23;;;16.80;99.90;;;;;;4920576;29;20398;-96
2023/07/13 08:19:45;;;;;;;3.70;1.40;;;17.00;99.90;;;;;;4920324;29;20040;-95
2023/07/13 08:22:11;;;;;;;4.75;2.03;;;17.00;99.90;;;;;;4922812;29;20063;-96
2023/07/13 08:24:38;;;;;;;5.85;1.88;;;17.10;99.90;;;;;;4920583;29;20031;-96
2023/07/13 08:27:06;;;;;;;2.30;1.40;;;17.30;99.90;;;;;;4920049;29;20028;-96
2023/07/13 08:29:32;;;;;;;6.65;1.75;;;17.30;99.90;;;;;;4930193;29;20016;-93
2023/07/13 08:31:58;;;;;;;6.00;1.88;;;17.40;99.90;;;;;;4927830;29;20494;-96
2023/07/13 08:34:24;;;;;;;3.45;1.42;;;17.50;99.90;;;;;;4935171;29;20092;-96
2023/07/13 08:36:51;;;;;;;5.68;1.33;;;17.50;99.90;;;;;;4933020;29;20127;-96
2023/07/13 08:39:17;;;;;;;4.70;1.30;;;17.60;99.90;;;;;;4933670;29;20036;-96
2023/07/13 08:41:53;;;;;;;4.05;1.50;;;17.60;99.90;;;;;;4940089;29;20047;-95
2023/07/13 08:44:56;;;;;;;5.43;1.90;;;17.70;99.90;;;;;;4943942;29;20016;-86
2023/07/13 08:47:24;;;;;;;4.93;1.67;;;17.80;99.90;;;;;;4944481;29;20016;-86
2023/07/13 08:49:53;;;;;;;4.40;1.30;;;17.70;99.90;;;;;;4943516;29;20039;-87
2023/07/13 08:52:36;;;;;;;2.38;1.40;;;17.70;99.90;;;;;;4943983;29;20024;-87
2023/07/13 08:55:21;;;;;;;3.35;1.52;;;17.70;99.90;;;;;;4943460;29;20055;-93
2023/07/13 08:57:54;;;;;;;4.50;2.03;;;17.70;99.90;;;;;;4943660;29;20040;-94
2023/07/13 09:00:20;;;;;;;5.10;1.45;;;17.70;99.90;;;;;;4943563;29;20013;-90
2023/07/13 09:02:53;;;;;;;3.00;1.58;;;17.80;99.90;;;;;;4943040;29;20040;-91
2023/07/13 09:05:50;;;;;;;4.00;1.23;;;18.00;99.90;;;;;;4936051;29;20058;-96
2023/07/13 09:08:34;;;;;;;3.95;1.58;;;18.10;99.90;;;;;;4931669;29;20095;-95
2023/07/13 09:11:24;;;;;;;4.45;1.88;;;18.30;99.90;;;;;;4930612;29;20036;-94
2023/07/13 09:14:32;;;;;;;6.03;1.55;;;18.40;99.90;;;;;;4930212;29;20040;-94
2023/07/13 09:16:59;;;;;;;3.65;1.33;;;18.60;99.10;;;;;;4937781;28;20104;-90
2023/07/13 09:19:32;;;;;;;5.68;1.88;;;18.60;97.60;;;;;;4939528;29;20028;-93
2023/07/13 09:22:01;;;;;;;4.57;1.70;;;18.70;97.30;;;;;;4934058;29;20035;-93
2023/07/13 09:24:52;;;;;;;3.85;1.70;;;18.90;97.00;;;;;;4935565;29;20596;-95
2023/07/13 09:27:21;;;;;;;2.45;1.50;;;19.00;96.50;;;;;;4937081;29;20040;-93
2023/07/13 09:30:11;;;;;;;8.88;1.60;;;19.10;95.40;;;;;;4940371;29;20058;-93
2023/07/13 09:32:39;;;;;;;2.47;1.60;;;19.30;95.00;;;;;;4942426;29;20044;-86
2023/07/13 09:35:12;;;;;;;4.75;1.20;;;19.50;94.50;;;;;;4942049;29;20105;-88
2023/07/13 09:37:41;;;;;;;3.97;1.45;;;19.60;93.50;;;;;;4941849;29;20016;-89
2023/07/13 09:40:25;;;;;;;3.83;1.38;;;19.80;93.00;;;;;;4941781;29;20084;-88
2023/07/13 09:42:53;;;;;;;4.60;1.88;;;20.10;92.70;;;;;;4935354;29;20024;-93
2023/07/13 09:45:31;;;;;;;2.55;1.15;;;20.30;92.40;;;;;;4924286;29;20024;-95
2023/07/13 09:48:05;;;;;;;5.40;1.40;;;20.60;91.90;;;;;;4931020;29;20031;-93
2023/07/13 09:50:30;;;;;;;2.28;1.55;;;20.80;90.90;;;;;;4945697;29;20056;-94
2023/07/13 09:52:59;;;;;;;2.28;1.55;;;20.80;90.70;;;;;;4932775;29;20052;-93
2023/07/13 09:55:39;;;;;;;4.07;1.40;;;20.90;90.20;;;;;;4926961;29;20036;-94
2023/07/13 09:58:14;;;;;;;2.00;1.38;;;20.90;88.60;;;;;;4922677;29;20134;-93
2023/07/13 10:00:43;;;;;;;4.20;1.33;;;21.00;87.70;;;;;;4925079;29;20043;-93
2023/07/13 10:03:54;;;;;;;4.00;1.70;;;21.10;87.40;;;;;;4923220;29;20028;-94
2023/07/13 10:06:21;;;;;;;4.47;1.63;;;21.10;85.60;;;;;;4921090;29;20040;-94
2023/07/13 10:08:49;;;;;;;4.25;1.40;;;21.00;84.40;;;;;;4923224;29;20040;-95
2023/07/13 10:11:22;;;;;;;2.85;1.50;;;21.00;84.00;;;;;;4917927;29;20486;-93
2023/07/13 10:13:56;;;;;;;2.60;1.45;;;21.00;83.40;;;;;;4912677;29;20040;-95
2023/07/13 10:16:24;;;;;;;2.33;1.40;;;21.00;82.80;;;;;;4923372;29;20051;-93
2023/07/13 10:18:56;;;;;;;3.03;1.50;;;21.00;82.20;;;;;;4923331;29;20119;-96
2023/07/13 10:21:27;;;;;;;5.30;1.55;;;21.10;81.80;;;;;;4929411;29;20032;-91
2023/07/13 10:24:16;;;;;;;5.03;1.58;;;21.20;81.70;;;;;;4924673;29;20031;-92
2023/07/13 10:27:00;;;;;;;4.95;2.03;;;21.20;80.60;;;;;;4910899;29;20111;-93
2023/07/13 10:29:29;;;;;;;4.40;1.65;;;21.30;78.80;;;;;;4919080;29;20036;-94
2023/07/13 10:31:57;;;;;;;2.53;1.58;;;21.30;77.80;;;;;;4917870;29;20028;-94
2023/07/13 10:34:23;;;;;;;3.33;1.67;;;21.30;78.30;;;;;;4916851;29;20040;-96
2023/07/13 10:36:50;;;;;;;3.75;1.98;;;21.40;79.00;;;;;;4916822;29;20036;-95
2023/07/13 10:39:23;;;;;;;2.35;1.20;;;21.40;78.90;;;;;;4916976;29;20032;-94
2023/07/13 10:42:03;;;;;;;3.30;1.45;;;21.50;78.90;;;;;;4917426;29;20024;-94
2023/07/13 10:44:32;;;;;;;3.72;1.30;;;21.60;78.40;;;;;;4918382;29;20055;-94
2023/07/13 10:47:06;;;;;;;1.67;1.13;;;21.70;77.10;;;;;;4917365;29;20032;-95
2023/07/13 10:49:33;;;;;;;4.80;1.58;;;21.80;76.60;;;;;;4916203;29;20088;-95
2023/07/13 10:51:59;;;;;;;2.28;1.30;;;22.00;76.30;;;;;;4923128;29;20103;-95
2023/07/13 10:54:33;;;;;;;3.78;1.40;;;22.00;76.10;;;;;;4922245;29;20076;-95
2023/07/13 10:57:14;;;;;;;5.15;2.33;;;22.00;76.50;;;;;;4922384;29;20059;-95
2023/07/13 10:59:41;;;;;;;2.58;1.52;;;22.00;75.40;;;;;;4932876;29;20055;-95
2023/07/13 11:02:32;;;;;;;5.20;1.50;;;22.00;75.30;;;;;;4907794;29;20053;-93
2023/07/13 11:04:59;;;;;;;2.17;1.40;;;22.10;75.10;;;;;;4914573;29;20056;-93
2023/07/13 11:07:50;;;;;;;4.32;1.85;;;22.00;74.70;;;;;;4923219;29;20024;-94
2023/07/13 11:10:36;;;;;;;;;;;22.20;74.40;;;;;;4927790;29;20045;-94
2023/07/13 11:13:01;;;;;;;3.58;1.40;;;22.30;73.50;;;;;;4903631;29;19915;-94
2023/07/13 11:15:32;;;;;;;6.32;1.65;;;22.50;73.10;;;;;;4930852;29;20043;-93
2023/07/13 11:18:03;;;;;;;3.42;1.35;;;22.60;72.70;;;;;;4920563;29;20095;-94
2023/07/13 11:20:36;;;;;;;;;;;22.60;72.50;;;;;;4917485;29;20280;-93
2023/07/13 11:23:17;;;;;;;2.90;1.48;;;22.50;73.00;;;;;;4913168;29;19986;-94
2023/07/13 11:25:43;;;;;;;2.80;1.42;;;22.60;72.70;;;;;;4916432;29;20032;-92
2023/07/13 11:28:12;;;;;;;1.60;1.15;;;22.60;72.50;;;;;;4917135;29;20060;-93
2023/07/13 11:30:44;;;;;;;1.73;1.20;;;22.60;73.00;;;;;;4917501;29;20088;-94
2023/07/13 11:33:12;;;;;;;3.05;1.05;;;22.60;72.70;;;;;;4923824;29;20051;-93
2023/07/13 11:35:47;;;;;;;2.25;1.10;;;22.90;72.80;;;;;;4925565;29;20054;-94
2023/07/13 11:38:35;;;;;;;5.53;1.08;;;23.20;72.10;;;;;;4918118;29;20052;-94
2023/07/13 11:41:13;;;;;;;4.90;1.50;;;23.40;71.30;;;;;;4917456;29;20036;-94
2023/07/13 11:43:39;;;;;;;3.42;1.15;;;23.70;70.90;;;;;;4916212;29;20024;-95
2023/07/13 11:46:25;;;;;;;2.22;1.35;;;24.10;70.20;;;;;;4916666;29;20044;-93
2023/07/13 11:48:52;;;;;;;4.57;1.10;;;24.30;69.00;;;;;;4915460;29;20559;-93
2023/07/13 11:51:30;;;;;;;6.13;1.33;;;24.30;68.00;;;;;;4916672;29;20060;-94
2023/07/13 11:54:01;;;;;;;3.75;1.20;;;24.10;67.70;;;;;;4919774;29;20044;-92
2023/07/13 11:56:27;;;;;;;6.90;1.25;;;24.10;67.80;;;;;;4922356;29;20032;-93
2023/07/13 11:58:55;;;;;;;4.63;1.40;;;24.10;67.90;;;;;;4927384;29;20031;-93
2023/07/13 12:01:25;;;;;;;4.43;1.30;;;23.90;67.30;;;;;;4921266;29;20084;-94
2023/07/13 12:03:52;;;;;;;4.90;1.73;;;23.70;67.50;;;;;;4917243;29;20076;-94
2023/07/13 12:06:35;;;;;;;3.90;1.30;;;23.50;68.20;;;;;;4914278;29;20037;-94
2023/07/13 12:09:08;;;;;;;2.17;1.20;;;23.70;69.00;;;;;;4918680;29;20039;-95
2023/07/13 12:11:44;;;;;;;4.70;1.40;;;23.80;68.50;;;;;;4917567;29;20028;-93
2023/07/13 12:14:17;;;;;;;6.10;1.45;;;23.60;68.00;;;;;;4917298;29;20045;-94
2023/07/13 12:16:46;;;;;;;6.00;1.42;;;23.50;68.30;;;;;;4917182;29;20046;-88
2023/07/13 12:19:24;;;;;;;4.03;1.42;;;23.40;68.40;;;;;;4916681;29;20064;-93
2023/07/13 12:21:53;;;;;;;2.47;1.02;;;23.30;68.00;;;;;;4919912;29;20032;-93
2023/07/13 12:24:22;;;;;;;4.80;1.40;;;23.20;68.40;;;;;;4919056;29;20101;-92
2023/07/13 12:27:29;;;;;;;2.27;1.10;;;23.20;68.80;;;;;;4919883;29;20036;-92
2023/07/13 12:30:00;;;;;;;4.43;1.45;;;23.20;69.00;;;;;;4900303;29;20032;-92
2023/07/13 12:32:27;;;;;;;6.00;1.30;;;23.20;68.80;;;;;;4916900;29;20107;-93
2023/07/13 12:35:01;;;;;;;4.13;1.30;;;23.30;68.70;;;;;;4919079;29;20040;-93
2023/07/13 12:37:28;;;;;;;4.43;1.55;;;23.30;68.00;;;;;;4919739;29;20020;-93
2023/07/13 12:39:53;;;;;;;4.95;1.60;;;23.40;67.80;;;;;;4917044;29;20039;-93
2023/07/13 12:42:32;;;;;;;3.20;1.52;;;23.60;67.80;;;;;;4918820;29;20046;-93
2023/07/13 12:45:18;;;;;;;4.00;1.30;;;23.80;67.80;;;;;;4918795;29;20032;-93
2023/07/13 12:47:48;;;;;;;3.90;1.38;;;23.90;66.80;;;;;;4918390;29;20016;-93
2023/07/13 12:50:20;;;;;;;8.77;1.75;;;23.90;66.60;;;;;;4919316;29;20047;-92
2023/07/13 12:52:53;;;;;;;6.00;1.30;;;24.00;66.30;;;;;;4918957;29;20044;-92